sensor_id;sensor_type;location;lat;lon;timestamp;P1;durP1;ratioP1;P2;durP2;ratioP2
7661;SDS011;30314;48.184;11.510;2023-04-25T00:00:51;2.30;;;1.10;;
7661;SDS011;30314;48.184;11.510;2023-04-25T00:03:18;2.87;;;1.43;;
7661;SDS011;30314;48.184;11.510;2023-04-25T00:05:47;1.80;;;1.33;;
7661;SDS011;30314;48.184;11.510;2023-04-25T00:08:14;2.13;;;1.53;;
7661;SDS011;30314;48.184;11.510;2023-04-25T00:10:40;1.57;;;0.90;;
7661;SDS011;30314;48.184;11.510;2023-04-25T00:13:07;2.70;;;1.43;;
7661;SDS011;30314;48.184;11.510;2023-04-25T00:15:34;2.30;;;1.60;;
7661;SDS011;30314;48.184;11.510;2023-04-25T00:18:02;4.53;;;1.57;;
7661;SDS011;30314;48.184;11.510;2023-04-25T00:20:29;1.90;;;1.57;;
7661;SDS011;30314;48.184;11.510;2023-04-25T00:22:56;4.77;;;1.87;;
7661;SDS011;30314;48.184;11.510;2023-04-25T00:25:22;2.53;;;1.47;;
7661;SDS011;30314;48.184;11.510;2023-04-25T00:27:49;6.00;;;1.93;;
7661;SDS011;30314;48.184;11.510;2023-04-25T00:30:16;5.77;;;1.90;;
7661;SDS011;30314;48.184;11.510;2023-04-25T00:32:42;4.87;;;1.53;;
7661;SDS011;30314;48.184;11.510;2023-04-25T00:35:09;2.03;;;1.27;;
7661;SDS011;30314;48.184;11.510;2023-04-25T00:37:36;4.00;;;1.80;;
7661;SDS011;30314;48.184;11.510;2023-04-25T00:40:04;2.23;;;1.53;;
7661;SDS011;30314;48.184;11.510;2023-04-25T00:42:32;2.63;;;1.40;;
7661;SDS011;30314;48.184;11.510;2023-04-25T00:44:59;1.83;;;0.90;;
7661;SDS011;30314;48.184;11.510;2023-04-25T00:47:27;2.60;;;1.60;;
7661;SDS011;30314;48.184;11.510;2023-04-25T00:49:54;4.80;;;1.33;;
7661;SDS011;30314;48.184;11.510;2023-04-25T00:52:21;1.80;;;1.30;;
7661;SDS011;30314;48.184;11.510;2023-04-25T00:54:48;1.70;;;1.40;;
7661;SDS011;30314;48.184;11.510;2023-04-25T00:57:14;3.03;;;1.77;;
7661;SDS011;30314;48.184;11.510;2023-04-25T00:59:42;2.07;;;1.70;;
7661;SDS011;30314;48.184;11.510;2023-04-25T01:02:13;2.07;;;1.53;;
7661;SDS011;30314;48.184;11.510;2023-04-25T01:04:39;3.13;;;1.80;;
7661;SDS011;30314;48.184;11.510;2023-04-25T01:07:06;4.50;;;2.17;;
7661;SDS011;30314;48.184;11.510;2023-04-25T01:09:33;2.37;;;1.50;;
7661;SDS011;30314;48.184;11.510;2023-04-25T01:12:00;2.73;;;1.70;;
7661;SDS011;30314;48.184;11.510;2023-04-25T01:14:27;2.20;;;1.60;;
7661;SDS011;30314;48.184;11.510;2023-04-25T01:16:53;1.93;;;1.40;;
7661;SDS011;30314;48.184;11.510;2023-04-25T01:19:20;3.97;;;1.57;;
7661;SDS011;30314;48.184;11.510;2023-04-25T01:21:47;2.73;;;1.60;;
7661;SDS011;30314;48.184;11.510;2023-04-25T01:24:14;3.03;;;1.90;;
7661;SDS011;30314;48.184;11.510;2023-04-25T01:26:41;2.60;;;1.87;;
7661;SDS011;30314;48.184;11.510;2023-04-25T01:29:19;2.50;;;1.40;;
7661;SDS011;30314;48.184;11.510;2023-04-25T01:31:46;4.33;;;1.97;;
7661;SDS011;30314;48.184;11.510;2023-04-25T01:34:14;2.77;;;1.40;;
7661;SDS011;30314;48.184;11.510;2023-04-25T01:36:40;2.40;;;2.03;;
7661;SDS011;30314;48.184;11.510;2023-04-25T01:39:07;2.40;;;1.50;;
7661;SDS011;30314;48.184;11.510;2023-04-25T01:41:33;2.60;;;1.80;;
7661;SDS011;30314;48.184;11.510;2023-04-25T01:44:01;3.33;;;1.50;;
7661;SDS011;30314;48.184;11.510;2023-04-25T01:46:29;3.53;;;1.30;;
7661;SDS011;30314;48.184;11.510;2023-04-25T01:48:57;4.90;;;1.37;;
7661;SDS011;30314;48.184;11.510;2023-04-25T01:51:23;1.87;;;1.27;;
7661;SDS011;30314;48.184;11.510;2023-04-25T01:53:50;8.83;;;1.60;;
7661;SDS011;30314;48.184;11.510;2023-04-25T01:56:17;3.10;;;1.33;;
7661;SDS011;30314;48.184;11.510;2023-04-25T01:58:45;6.33;;;1.40;;
7661;SDS011;30314;48.184;11.510;2023-04-25T02:01:34;3.77;;;1.93;;
7661;SDS011;30314;48.184;11.510;2023-04-25T02:04:15;2.27;;;1.87;;
7661;SDS011;30314;48.184;11.510;2023-04-25T02:06:43;2.53;;;1.07;;
7661;SDS011;30314;48.184;11.510;2023-04-25T02:09:10;4.20;;;1.67;;
7661;SDS011;30314;48.184;11.510;2023-04-25T02:11:43;4.97;;;1.83;;
7661;SDS011;30314;48.184;11.510;2023-04-25T02:14:33;3.40;;;1.80;;
7661;SDS011;30314;48.184;11.510;2023-04-25T02:17:14;9.50;;;1.40;;
7661;SDS011;30314;48.184;11.510;2023-04-25T02:19:44;3.70;;;1.40;;
7661;SDS011;30314;48.184;11.510;2023-04-25T02:22:11;2.90;;;1.37;;
7661;SDS011;30314;48.184;11.510;2023-04-25T02:24:38;3.07;;;1.33;;
7661;SDS011;30314;48.184;11.510;2023-04-25T02:27:05;3.07;;;1.43;;
7661;SDS011;30314;48.184;11.510;2023-04-25T02:29:33;2.00;;;1.33;;
7661;SDS011;30314;48.184;11.510;2023-04-25T02:32:00;4.63;;;1.77;;
7661;SDS011;30314;48.184;11.510;2023-04-25T02:34:26;3.57;;;1.73;;
7661;SDS011;30314;48.184;11.510;2023-04-25T02:36:53;3.60;;;1.83;;
7661;SDS011;30314;48.184;11.510;2023-04-25T02:39:19;1.80;;;1.53;;
7661;SDS011;30314;48.184;11.510;2023-04-25T02:41:48;2.80;;;1.60;;
7661;SDS011;30314;48.184;11.510;2023-04-25T02:44:14;5.77;;;1.93;;
7661;SDS011;30314;48.184;11.510;2023-04-25T02:46:43;2.23;;;1.67;;
7661;SDS011;30314;48.184;11.510;2023-04-25T02:49:09;2.77;;;1.70;;
7661;SDS011;30314;48.184;11.510;2023-04-25T02:51:36;2.43;;;1.60;;
7661;SDS011;30314;48.184;11.510;2023-04-25T02:54:03;2.50;;;1.77;;
7661;SDS011;30314;48.184;11.510;2023-04-25T02:56:33;2.10;;;1.73;;
7661;SDS011;30314;48.184;11.510;2023-04-25T02:59:00;3.33;;;2.13;;
7661;SDS011;30314;48.184;11.510;2023-04-25T03:01:27;5.63;;;2.60;;
7661;SDS011;30314;48.184;11.510;2023-04-25T03:03:54;1.93;;;1.60;;
7661;SDS011;30314;48.184;11.510;2023-04-25T03:06:21;3.97;;;1.90;;
7661;SDS011;30314;48.184;11.510;2023-04-25T03:08:48;2.63;;;1.53;;
7661;SDS011;30314;48.184;11.510;2023-04-25T03:11:14;2.93;;;1.93;;
7661;SDS011;30314;48.184;11.510;2023-04-25T03:13:42;9.60;;;2.00;;
7661;SDS011;30314;48.184;11.510;2023-04-25T03:16:10;3.13;;;1.60;;
7661;SDS011;30314;48.184;11.510;2023-04-25T03:18:37;2.60;;;1.80;;
7661;SDS011;30314;48.184;11.510;2023-04-25T03:21:03;5.50;;;1.67;;
7661;SDS011;30314;48.184;11.510;2023-04-25T03:23:30;3.00;;;1.77;;
7661;SDS011;30314;48.184;11.510;2023-04-25T03:25:57;2.73;;;2.00;;
7661;SDS011;30314;48.184;11.510;2023-04-25T03:28:23;2.53;;;1.60;;
7661;SDS011;30314;48.184;11.510;2023-04-25T03:30:50;2.43;;;1.53;;
7661;SDS011;30314;48.184;11.510;2023-04-25T03:33:16;1.60;;;1.50;;
7661;SDS011;30314;48.184;11.510;2023-04-25T03:35:43;8.10;;;1.43;;
7661;SDS011;30314;48.184;11.510;2023-04-25T03:38:10;2.87;;;1.63;;
7661;SDS011;30314;48.184;11.510;2023-04-25T03:40:39;2.70;;;1.70;;
7661;SDS011;30314;48.184;11.510;2023-04-25T03:43:16;1.83;;;1.13;;
7661;SDS011;30314;48.184;11.510;2023-04-25T03:45:49;2.70;;;1.27;;
7661;SDS011;30314;48.184;11.510;2023-04-25T03:48:19;2.77;;;1.40;;
7661;SDS011;30314;48.184;11.510;2023-04-25T03:50:51;2.43;;;1.50;;
7661;SDS011;30314;48.184;11.510;2023-04-25T03:53:18;2.07;;;1.30;;
7661;SDS011;30314;48.184;11.510;2023-04-25T03:56:18;7.53;;;1.50;;
7661;SDS011;30314;48.184;11.510;2023-04-25T03:58:46;2.70;;;1.30;;
7661;SDS011;30314;48.184;11.510;2023-04-25T04:01:15;1.93;;;1.37;;
7661;SDS011;30314;48.184;11.510;2023-04-25T04:03:44;2.90;;;1.60;;
7661;SDS011;30314;48.184;11.510;2023-04-25T04:06:11;2.20;;;1.37;;
7661;SDS011;30314;48.184;11.510;2023-04-25T04:08:41;3.13;;;1.60;;
7661;SDS011;30314;48.184;11.510;2023-04-25T04:11:09;2.13;;;1.50;;
7661;SDS011;30314;48.184;11.510;2023-04-25T04:13:37;3.70;;;1.20;;
7661;SDS011;30314;48.184;11.510;2023-04-25T04:16:04;2.30;;;1.20;;
7661;SDS011;30314;48.184;11.510;2023-04-25T04:18:32;1.97;;;1.20;;
7661;SDS011;30314;48.184;11.510;2023-04-25T04:21:00;3.10;;;1.20;;
7661;SDS011;30314;48.184;11.510;2023-04-25T04:23:31;4.23;;;1.40;;
7661;SDS011;30314;48.184;11.510;2023-04-25T04:25:58;5.37;;;1.40;;
7661;SDS011;30314;48.184;11.510;2023-04-25T04:28:41;3.50;;;1.00;;
7661;SDS011;30314;48.184;11.510;2023-04-25T04:31:22;4.83;;;1.60;;
7661;SDS011;30314;48.184;11.510;2023-04-25T04:33:49;5.43;;;2.33;;
7661;SDS011;30314;48.184;11.510;2023-04-25T04:36:18;3.53;;;1.30;;
7661;SDS011;30314;48.184;11.510;2023-04-25T04:38:48;1.93;;;1.50;;
7661;SDS011;30314;48.184;11.510;2023-04-25T04:41:24;2.73;;;1.20;;
7661;SDS011;30314;48.184;11.510;2023-04-25T04:44:26;4.50;;;1.30;;
7661;SDS011;30314;48.184;11.510;2023-04-25T04:47:12;5.37;;;1.30;;
7661;SDS011;30314;48.184;11.510;2023-04-25T04:49:58;2.20;;;1.57;;
7661;SDS011;30314;48.184;11.510;2023-04-25T04:52:31;3.43;;;1.13;;
7661;SDS011;30314;48.184;11.510;2023-04-25T04:55:13;5.67;;;1.40;;
7661;SDS011;30314;48.184;11.510;2023-04-25T04:57:51;2.70;;;1.50;;
7661;SDS011;30314;48.184;11.510;2023-04-25T05:00:28;2.43;;;1.43;;
7661;SDS011;30314;48.184;11.510;2023-04-25T05:03:31;2.53;;;1.40;;
7661;SDS011;30314;48.184;11.510;2023-04-25T05:06:03;2.90;;;1.30;;
7661;SDS011;30314;48.184;11.510;2023-04-25T05:08:45;3.80;;;1.70;;
7661;SDS011;30314;48.184;11.510;2023-04-25T05:11:41;2.93;;;1.30;;
7661;SDS011;30314;48.184;11.510;2023-04-25T05:14:28;1.77;;;1.10;;
7661;SDS011;30314;48.184;11.510;2023-04-25T05:17:21;4.10;;;1.23;;
7661;SDS011;30314;48.184;11.510;2023-04-25T05:19:54;2.07;;;1.43;;
7661;SDS011;30314;48.184;11.510;2023-04-25T05:22:49;3.27;;;1.47;;
7661;SDS011;30314;48.184;11.510;2023-04-25T05:25:51;4.33;;;1.63;;
7661;SDS011;30314;48.184;11.510;2023-04-25T05:28:30;3.97;;;2.00;;
7661;SDS011;30314;48.184;11.510;2023-04-25T05:31:26;2.27;;;1.60;;
7661;SDS011;30314;48.184;11.510;2023-04-25T05:34:00;5.20;;;1.83;;
7661;SDS011;30314;48.184;11.510;2023-04-25T05:36:59;6.17;;;1.97;;
7661;SDS011;30314;48.184;11.510;2023-04-25T05:39:28;2.80;;;1.60;;
7661;SDS011;30314;48.184;11.510;2023-04-25T05:42:06;2.17;;;1.60;;
7661;SDS011;30314;48.184;11.510;2023-04-25T05:45:00;4.07;;;1.73;;
7661;SDS011;30314;48.184;11.510;2023-04-25T05:47:50;7.23;;;1.90;;
7661;SDS011;30314;48.184;11.510;2023-04-25T05:50:37;3.87;;;1.77;;
7661;SDS011;30314;48.184;11.510;2023-04-25T05:53:18;5.70;;;2.33;;
7661;SDS011;30314;48.184;11.510;2023-04-25T05:55:52;4.53;;;2.33;;
7661;SDS011;30314;48.184;11.510;2023-04-25T05:58:24;6.63;;;2.30;;
7661;SDS011;30314;48.184;11.510;2023-04-25T06:00:50;5.20;;;2.10;;
7661;SDS011;30314;48.184;11.510;2023-04-25T06:03:17;3.97;;;1.90;;
7661;SDS011;30314;48.184;11.510;2023-04-25T06:05:47;4.70;;;1.93;;
7661;SDS011;30314;48.184;11.510;2023-04-25T06:08:13;4.93;;;1.70;;
7661;SDS011;30314;48.184;11.510;2023-04-25T06:10:40;4.77;;;2.10;;
7661;SDS011;30314;48.184;11.510;2023-04-25T06:13:07;4.03;;;1.67;;
7661;SDS011;30314;48.184;11.510;2023-04-25T06:15:35;4.40;;;1.50;;
7661;SDS011;30314;48.184;11.510;2023-04-25T06:18:02;2.50;;;1.83;;
7661;SDS011;30314;48.184;11.510;2023-04-25T06:20:28;4.77;;;2.03;;
7661;SDS011;30314;48.184;11.510;2023-04-25T06:22:57;2.90;;;1.60;;
7661;SDS011;30314;48.184;11.510;2023-04-25T06:25:37;3.53;;;2.70;;
7661;SDS011;30314;48.184;11.510;2023-04-25T06:28:04;1.80;;;1.53;;
7661;SDS011;30314;48.184;11.510;2023-04-25T06:30:31;3.97;;;1.70;;
7661;SDS011;30314;48.184;11.510;2023-04-25T06:33:04;5.90;;;1.30;;
7661;SDS011;30314;48.184;11.510;2023-04-25T06:35:31;4.47;;;2.30;;
7661;SDS011;30314;48.184;11.510;2023-04-25T06:37:58;4.10;;;2.17;;
7661;SDS011;30314;48.184;11.510;2023-04-25T06:40:25;10.40;;;2.20;;
7661;SDS011;30314;48.184;11.510;2023-04-25T06:42:52;3.87;;;1.87;;
7661;SDS011;30314;48.184;11.510;2023-04-25T06:45:35;2.77;;;1.73;;
7661;SDS011;30314;48.184;11.510;2023-04-25T06:48:02;3.60;;;2.27;;
7661;SDS011;30314;48.184;11.510;2023-04-25T06:50:29;4.03;;;2.00;;
7661;SDS011;30314;48.184;11.510;2023-04-25T06:52:56;3.27;;;2.00;;
7661;SDS011;30314;48.184;11.510;2023-04-25T06:55:22;4.20;;;2.00;;
7661;SDS011;30314;48.184;11.510;2023-04-25T06:58:01;4.33;;;2.33;;
7661;SDS011;30314;48.184;11.510;2023-04-25T07:00:48;7.20;;;2.37;;
7661;SDS011;30314;48.184;11.510;2023-04-25T07:03:15;5.47;;;2.50;;
7661;SDS011;30314;48.184;11.510;2023-04-25T07:05:42;9.40;;;1.73;;
7661;SDS011;30314;48.184;11.510;2023-04-25T07:08:09;6.80;;;2.20;;
7661;SDS011;30314;48.184;11.510;2023-04-25T07:10:36;3.50;;;2.10;;
7661;SDS011;30314;48.184;11.510;2023-04-25T07:13:03;3.37;;;2.10;;
7661;SDS011;30314;48.184;11.510;2023-04-25T07:15:30;3.00;;;1.70;;
7661;SDS011;30314;48.184;11.510;2023-04-25T07:17:58;4.73;;;2.10;;
7661;SDS011;30314;48.184;11.510;2023-04-25T07:20:25;2.90;;;2.20;;
7661;SDS011;30314;48.184;11.510;2023-04-25T07:22:51;2.10;;;1.33;;
7661;SDS011;30314;48.184;11.510;2023-04-25T07:25:18;3.03;;;1.60;;
7661;SDS011;30314;48.184;11.510;2023-04-25T07:27:45;3.07;;;2.00;;
7661;SDS011;30314;48.184;11.510;2023-04-25T07:30:17;2.87;;;1.60;;
7661;SDS011;30314;48.184;11.510;2023-04-25T07:32:44;4.33;;;2.07;;
7661;SDS011;30314;48.184;11.510;2023-04-25T07:35:11;3.97;;;1.60;;
7661;SDS011;30314;48.184;11.510;2023-04-25T07:37:38;8.23;;;2.20;;
7661;SDS011;30314;48.184;11.510;2023-04-25T07:40:11;5.13;;;1.57;;
7661;SDS011;30314;48.184;11.510;2023-04-25T07:42:43;5.87;;;2.10;;
7661;SDS011;30314;48.184;11.510;2023-04-25T07:45:13;2.80;;;1.63;;
7661;SDS011;30314;48.184;11.510;2023-04-25T07:47:39;5.23;;;1.43;;
7661;SDS011;30314;48.184;11.510;2023-04-25T07:50:06;3.03;;;1.57;;
7661;SDS011;30314;48.184;11.510;2023-04-25T07:52:33;6.70;;;1.63;;
7661;SDS011;30314;48.184;11.510;2023-04-25T07:55:20;3.40;;;1.33;;
7661;SDS011;30314;48.184;11.510;2023-04-25T07:57:56;4.80;;;1.50;;
7661;SDS011;30314;48.184;11.510;2023-04-25T08:00:22;3.93;;;1.87;;
7661;SDS011;30314;48.184;11.510;2023-04-25T08:03:01;3.63;;;1.67;;
7661;SDS011;30314;48.184;11.510;2023-04-25T08:05:28;3.67;;;1.83;;
7661;SDS011;30314;48.184;11.510;2023-04-25T08:08:01;2.47;;;1.33;;
7661;SDS011;30314;48.184;11.510;2023-04-25T08:10:28;2.80;;;1.83;;
7661;SDS011;30314;48.184;11.510;2023-04-25T08:12:55;2.20;;;1.40;;
7661;SDS011;30314;48.184;11.510;2023-04-25T08:15:22;3.23;;;1.70;;
7661;SDS011;30314;48.184;11.510;2023-04-25T08:17:49;2.37;;;1.77;;
7661;SDS011;30314;48.184;11.510;2023-04-25T08:20:16;3.90;;;1.67;;
7661;SDS011;30314;48.184;11.510;2023-04-25T08:22:43;3.27;;;2.07;;
7661;SDS011;30314;48.184;11.510;2023-04-25T08:25:25;3.80;;;2.20;;
7661;SDS011;30314;48.184;11.510;2023-04-25T08:27:52;3.00;;;1.87;;
7661;SDS011;30314;48.184;11.510;2023-04-25T08:30:21;8.47;;;1.43;;
7661;SDS011;30314;48.184;11.510;2023-04-25T08:32:48;3.00;;;1.57;;
7661;SDS011;30314;48.184;11.510;2023-04-25T08:35:25;2.80;;;1.63;;
7661;SDS011;30314;48.184;11.510;2023-04-25T08:37:52;2.20;;;1.40;;
7661;SDS011;30314;48.184;11.510;2023-04-25T08:40:19;2.03;;;1.10;;
7661;SDS011;30314;48.184;11.510;2023-04-25T08:42:55;5.23;;;1.60;;
7661;SDS011;30314;48.184;11.510;2023-04-25T08:45:23;2.67;;;1.57;;
7661;SDS011;30314;48.184;11.510;2023-04-25T08:47:52;5.93;;;1.90;;
7661;SDS011;30314;48.184;11.510;2023-04-25T08:50:20;6.03;;;1.53;;
7661;SDS011;30314;48.184;11.510;2023-04-25T08:52:50;3.47;;;1.53;;
7661;SDS011;30314;48.184;11.510;2023-04-25T08:55:20;2.50;;;1.73;;
7661;SDS011;30314;48.184;11.510;2023-04-25T08:57:52;2.70;;;1.60;;
7661;SDS011;30314;48.184;11.510;2023-04-25T09:00:21;4.47;;;1.37;;
7661;SDS011;30314;48.184;11.510;2023-04-25T09:02:48;1.67;;;1.07;;
7661;SDS011;30314;48.184;11.510;2023-04-25T09:05:15;3.63;;;1.17;;
7661;SDS011;30314;48.184;11.510;2023-04-25T09:07:45;2.80;;;1.47;;
7661;SDS011;30314;48.184;11.510;2023-04-25T09:10:14;2.40;;;0.70;;
7661;SDS011;30314;48.184;11.510;2023-04-25T09:12:41;4.63;;;1.40;;
7661;SDS011;30314;48.184;11.510;2023-04-25T09:15:09;2.67;;;1.17;;
7661;SDS011;30314;48.184;11.510;2023-04-25T09:17:59;2.60;;;1.00;;
7661;SDS011;30314;48.184;11.510;2023-04-25T09:20:31;4.47;;;1.33;;
7661;SDS011;30314;48.184;11.510;2023-04-25T09:23:03;4.63;;;1.20;;
7661;SDS011;30314;48.184;11.510;2023-04-25T09:25:36;1.77;;;1.30;;
7661;SDS011;30314;48.184;11.510;2023-04-25T09:28:07;1.50;;;0.87;;
7661;SDS011;30314;48.184;11.510;2023-04-25T09:30:34;1.63;;;0.90;;
7661;SDS011;30314;48.184;11.510;2023-04-25T09:33:18;3.13;;;1.17;;
7661;SDS011;30314;48.184;11.510;2023-04-25T09:35:48;3.53;;;1.13;;
7661;SDS011;30314;48.184;11.510;2023-04-25T09:38:42;3.10;;;1.00;;
7661;SDS011;30314;48.184;11.510;2023-04-25T09:41:15;2.90;;;1.30;;
7661;SDS011;30314;48.184;11.510;2023-04-25T09:43:49;3.00;;;1.33;;
7661;SDS011;30314;48.184;11.510;2023-04-25T09:46:17;5.63;;;1.63;;
7661;SDS011;30314;48.184;11.510;2023-04-25T09:48:51;3.10;;;1.20;;
7661;SDS011;30314;48.184;11.510;2023-04-25T09:51:27;1.80;;;1.00;;
7661;SDS011;30314;48.184;11.510;2023-04-25T09:53:57;2.17;;;1.00;;
7661;SDS011;30314;48.184;11.510;2023-04-25T09:56:39;2.30;;;1.23;;
7661;SDS011;30314;48.184;11.510;2023-04-25T09:59:08;3.37;;;1.13;;
7661;SDS011;30314;48.184;11.510;2023-04-25T10:01:36;2.40;;;1.10;;
7661;SDS011;30314;48.184;11.510;2023-04-25T10:04:12;3.17;;;0.97;;
7661;SDS011;30314;48.184;11.510;2023-04-25T10:06:53;3.87;;;1.37;;
7661;SDS011;30314;48.184;11.510;2023-04-25T10:09:23;3.10;;;1.60;;
7661;SDS011;30314;48.184;11.510;2023-04-25T10:11:52;2.17;;;1.00;;
7661;SDS011;30314;48.184;11.510;2023-04-25T10:14:19;1.80;;;1.10;;
7661;SDS011;30314;48.184;11.510;2023-04-25T10:16:45;2.53;;;1.00;;
7661;SDS011;30314;48.184;11.510;2023-04-25T10:19:13;1.50;;;0.90;;
7661;SDS011;30314;48.184;11.510;2023-04-25T10:21:44;2.50;;;1.17;;
7661;SDS011;30314;48.184;11.510;2023-04-25T10:24:19;1.90;;;1.10;;
7661;SDS011;30314;48.184;11.510;2023-04-25T10:26:46;2.23;;;1.20;;
7661;SDS011;30314;48.184;11.510;2023-04-25T10:29:21;1.43;;;0.70;;
7661;SDS011;30314;48.184;11.510;2023-04-25T10:31:51;1.53;;;0.77;;
7661;SDS011;30314;48.184;11.510;2023-04-25T10:34:18;6.23;;;1.93;;
7661;SDS011;30314;48.184;11.510;2023-04-25T10:36:50;9.53;;;1.20;;
7661;SDS011;30314;48.184;11.510;2023-04-25T10:39:22;2.00;;;0.80;;
7661;SDS011;30314;48.184;11.510;2023-04-25T10:44:22;3.90;;;1.60;;
7661;SDS011;30314;48.184;11.510;2023-04-25T10:46:48;5.13;;;2.30;;
7661;SDS011;30314;48.184;11.510;2023-04-25T10:49:28;1.73;;;1.17;;
7661;SDS011;30314;48.184;11.510;2023-04-25T10:55:07;6.20;;;1.17;;
7661;SDS011;30314;48.184;11.510;2023-04-25T11:02:40;1.60;;;1.00;;
7661;SDS011;30314;48.184;11.510;2023-04-25T11:05:09;3.00;;;1.50;;
7661;SDS011;30314;48.184;11.510;2023-04-25T11:07:44;3.07;;;1.33;;
7661;SDS011;30314;48.184;11.510;2023-04-25T11:10:30;3.33;;;1.30;;
7661;SDS011;30314;48.184;11.510;2023-04-25T11:12:57;2.60;;;1.13;;
7661;SDS011;30314;48.184;11.510;2023-04-25T11:15:24;2.27;;;0.87;;
7661;SDS011;30314;48.184;11.510;2023-04-25T11:17:51;2.57;;;0.83;;
7661;SDS011;30314;48.184;11.510;2023-04-25T11:20:18;5.33;;;1.13;;
7661;SDS011;30314;48.184;11.510;2023-04-25T11:22:45;1.77;;;1.00;;
7661;SDS011;30314;48.184;11.510;2023-04-25T11:25:14;2.17;;;1.13;;
7661;SDS011;30314;48.184;11.510;2023-04-25T11:27:55;2.27;;;0.90;;
7661;SDS011;30314;48.184;11.510;2023-04-25T11:30:25;3.57;;;1.30;;
7661;SDS011;30314;48.184;11.510;2023-04-25T11:32:52;4.60;;;0.90;;
7661;SDS011;30314;48.184;11.510;2023-04-25T11:35:19;3.33;;;1.37;;
7661;SDS011;30314;48.184;11.510;2023-04-25T11:37:49;2.10;;;1.20;;
7661;SDS011;30314;48.184;11.510;2023-04-25T11:40:16;1.70;;;1.30;;
7661;SDS011;30314;48.184;11.510;2023-04-25T11:42:43;3.10;;;1.13;;
7661;SDS011;30314;48.184;11.510;2023-04-25T11:45:11;2.37;;;1.37;;
7661;SDS011;30314;48.184;11.510;2023-04-25T11:47:38;2.00;;;1.37;;
7661;SDS011;30314;48.184;11.510;2023-04-25T11:50:06;3.77;;;1.33;;
7661;SDS011;30314;48.184;11.510;2023-04-25T11:57:41;4.60;;;0.90;;
7661;SDS011;30314;48.184;11.510;2023-04-25T12:00:10;1.23;;;0.50;;
7661;SDS011;30314;48.184;11.510;2023-04-25T12:02:45;1.60;;;0.77;;
7661;SDS011;30314;48.184;11.510;2023-04-25T12:05:26;3.43;;;0.70;;
7661;SDS011;30314;48.184;11.510;2023-04-25T12:08:09;1.20;;;0.70;;
7661;SDS011;30314;48.184;11.510;2023-04-25T12:10:37;2.10;;;0.90;;
7661;SDS011;30314;48.184;11.510;2023-04-25T12:13:19;3.90;;;0.70;;
7661;SDS011;30314;48.184;11.510;2023-04-25T12:15:47;6.53;;;0.97;;
7661;SDS011;30314;48.184;11.510;2023-04-25T12:18:14;1.97;;;1.27;;
7661;SDS011;30314;48.184;11.510;2023-04-25T12:20:41;1.23;;;0.80;;
7661;SDS011;30314;48.184;11.510;2023-04-25T12:23:08;2.13;;;0.77;;
7661;SDS011;30314;48.184;11.510;2023-04-25T12:25:41;2.23;;;0.87;;
7661;SDS011;30314;48.184;11.510;2023-04-25T12:28:19;1.93;;;0.90;;
7661;SDS011;30314;48.184;11.510;2023-04-25T12:30:53;1.20;;;0.80;;
7661;SDS011;30314;48.184;11.510;2023-04-25T12:33:21;1.50;;;0.80;;
7661;SDS011;30314;48.184;11.510;2023-04-25T12:35:48;2.50;;;1.10;;
7661;SDS011;30314;48.184;11.510;2023-04-25T12:38:25;1.97;;;0.90;;
7661;SDS011;30314;48.184;11.510;2023-04-25T12:41:00;3.33;;;1.70;;
7661;SDS011;30314;48.184;11.510;2023-04-25T12:43:27;1.90;;;1.00;;
7661;SDS011;30314;48.184;11.510;2023-04-25T12:45:54;4.00;;;1.10;;
7661;SDS011;30314;48.184;11.510;2023-04-25T12:48:21;2.87;;;1.03;;
7661;SDS011;30314;48.184;11.510;2023-04-25T12:50:49;3.43;;;0.70;;
7661;SDS011;30314;48.184;11.510;2023-04-25T12:53:20;2.13;;;1.57;;
7661;SDS011;30314;48.184;11.510;2023-04-25T12:55:47;7.50;;;1.27;;
7661;SDS011;30314;48.184;11.510;2023-04-25T12:58:15;4.87;;;0.97;;
7661;SDS011;30314;48.184;11.510;2023-04-25T13:00:44;2.70;;;1.00;;
7661;SDS011;30314;48.184;11.510;2023-04-25T13:03:12;2.33;;;1.07;;
7661;SDS011;30314;48.184;11.510;2023-04-25T13:05:39;2.60;;;1.03;;
7661;SDS011;30314;48.184;11.510;2023-04-25T13:08:06;1.77;;;1.03;;
7661;SDS011;30314;48.184;11.510;2023-04-25T13:10:33;5.70;;;0.80;;
7661;SDS011;30314;48.184;11.510;2023-04-25T13:13:00;2.07;;;0.97;;
7661;SDS011;30314;48.184;11.510;2023-04-25T13:15:27;1.00;;;0.60;;
7661;SDS011;30314;48.184;11.510;2023-04-25T13:17:54;1.70;;;1.23;;
7661;SDS011;30314;48.184;11.510;2023-04-25T13:20:20;1.53;;;0.90;;
7661;SDS011;30314;48.184;11.510;2023-04-25T13:22:48;4.57;;;0.97;;
7661;SDS011;30314;48.184;11.510;2023-04-25T13:25:15;2.60;;;0.53;;
7661;SDS011;30314;48.184;11.510;2023-04-25T13:27:42;3.53;;;1.10;;
7661;SDS011;30314;48.184;11.510;2023-04-25T13:30:10;1.80;;;1.00;;
7661;SDS011;30314;48.184;11.510;2023-04-25T13:32:37;3.90;;;0.67;;
7661;SDS011;30314;48.184;11.510;2023-04-25T13:35:05;1.13;;;0.77;;
7661;SDS011;30314;48.184;11.510;2023-04-25T13:37:36;1.20;;;0.50;;
7661;SDS011;30314;48.184;11.510;2023-04-25T13:40:03;1.40;;;0.57;;
7661;SDS011;30314;48.184;11.510;2023-04-25T13:42:32;1.50;;;1.03;;
7661;SDS011;30314;48.184;11.510;2023-04-25T13:44:58;0.90;;;0.53;;
7661;SDS011;30314;48.184;11.510;2023-04-25T13:47:25;2.63;;;0.80;;
7661;SDS011;30314;48.184;11.510;2023-04-25T13:49:53;1.00;;;0.67;;
7661;SDS011;30314;48.184;11.510;2023-04-25T13:52:19;1.87;;;1.10;;
7661;SDS011;30314;48.184;11.510;2023-04-25T13:54:47;2.20;;;1.10;;
7661;SDS011;30314;48.184;11.510;2023-04-25T13:57:14;1.77;;;1.20;;
7661;SDS011;30314;48.184;11.510;2023-04-25T13:59:40;2.13;;;1.40;;
7661;SDS011;30314;48.184;11.510;2023-04-25T14:02:07;2.70;;;1.23;;
7661;SDS011;30314;48.184;11.510;2023-04-25T14:04:33;2.50;;;1.70;;
7661;SDS011;30314;48.184;11.510;2023-04-25T14:07:00;5.47;;;1.70;;
7661;SDS011;30314;48.184;11.510;2023-04-25T14:09:28;2.90;;;1.60;;
7661;SDS011;30314;48.184;11.510;2023-04-25T14:11:55;2.37;;;1.53;;
7661;SDS011;30314;48.184;11.510;2023-04-25T14:14:22;2.63;;;1.20;;
7661;SDS011;30314;48.184;11.510;2023-04-25T14:16:49;4.93;;;1.13;;
7661;SDS011;30314;48.184;11.510;2023-04-25T14:19:18;3.90;;;1.33;;
7661;SDS011;30314;48.184;11.510;2023-04-25T14:21:47;2.73;;;0.90;;
7661;SDS011;30314;48.184;11.510;2023-04-25T14:24:13;1.80;;;1.23;;
7661;SDS011;30314;48.184;11.510;2023-04-25T14:26:40;2.90;;;1.60;;
7661;SDS011;30314;48.184;11.510;2023-04-25T14:29:08;1.23;;;0.93;;
7661;SDS011;30314;48.184;11.510;2023-04-25T14:31:35;1.97;;;1.10;;
7661;SDS011;30314;48.184;11.510;2023-04-25T14:34:01;3.00;;;1.17;;
7661;SDS011;30314;48.184;11.510;2023-04-25T14:36:28;1.27;;;0.83;;
7661;SDS011;30314;48.184;11.510;2023-04-25T14:38:55;2.87;;;1.40;;
7661;SDS011;30314;48.184;11.510;2023-04-25T14:41:21;1.30;;;0.70;;
7661;SDS011;30314;48.184;11.510;2023-04-25T14:43:49;1.30;;;0.80;;
7661;SDS011;30314;48.184;11.510;2023-04-25T14:46:16;1.63;;;1.00;;
7661;SDS011;30314;48.184;11.510;2023-04-25T14:48:43;1.20;;;0.70;;
7661;SDS011;30314;48.184;11.510;2023-04-25T14:51:09;1.20;;;0.57;;
7661;SDS011;30314;48.184;11.510;2023-04-25T14:53:36;1.73;;;0.80;;
7661;SDS011;30314;48.184;11.510;2023-04-25T14:56:03;1.80;;;0.67;;
7661;SDS011;30314;48.184;11.510;2023-04-25T14:58:30;2.40;;;0.60;;
7661;SDS011;30314;48.184;11.510;2023-04-25T15:00:57;2.70;;;0.73;;
7661;SDS011;30314;48.184;11.510;2023-04-25T15:03:24;1.20;;;0.70;;
7661;SDS011;30314;48.184;11.510;2023-04-25T15:05:52;1.57;;;0.70;;
7661;SDS011;30314;48.184;11.510;2023-04-25T15:08:21;1.97;;;1.13;;
7661;SDS011;30314;48.184;11.510;2023-04-25T15:10:48;1.30;;;0.80;;
7661;SDS011;30314;48.184;11.510;2023-04-25T15:13:14;1.43;;;0.83;;
7661;SDS011;30314;48.184;11.510;2023-04-25T15:15:41;1.10;;;0.80;;
7661;SDS011;30314;48.184;11.510;2023-04-25T15:18:08;0.90;;;0.60;;
7661;SDS011;30314;48.184;11.510;2023-04-25T15:20:34;1.77;;;0.83;;
7661;SDS011;30314;48.184;11.510;2023-04-25T15:23:01;2.00;;;1.10;;